Grenada, CA (96038)

7:18 PM PDT on July 27, 2016 (GMT -0700)
Grenada | | Change Station

Elev 2707 ft 41.58 °N, 122.55 °W | Updated 1 minute ago

Clear
Clear
93.4 °F
Feels Like 91 °F
N
14.5
Wind Variable Wind from NNW

Today
High -- | Low -- °F
--% Chance of Precip.
Yesterday
High -- | Low -- °F
Precip. -- in
Pressure 29.91 in
Visibility 10.0 miles
Clouds Clear
Heat Index 91 °F
Dew Point 51 °F
Humidity 24%
Rainfall 0.00 in
Snow Depth Not available.
6:00 AM 8:32 PM
Last Quarter, 37% visible
METAR KSIY 280153Z AUTO 34015KT 10SM CLR 34/11 A2996 RMK AO2 SLP127 T03390106
Pressure 29.91 in
Visibility 10.0 miles
Clouds Clear
Heat Index 91 °F
Dew Point 51 °F
Humidity 24%
Rainfall 0.00 in
Snow Depth Not available.
6:00 AM 8:32 PM
Last Quarter, 37% visible
METAR KSIY 280153Z AUTO 34015KT 10SM CLR 34/11 A2996 RMK AO2 SLP127 T03390106

10-Day Weather Forecast

Almanac

Astronomy

Jul. 27, 2016 Rise Set
Actual Time
Civil Twilight
Nautical Twilight
Astronomical Twilight
Moon
Length of Visible Light
Length of Day
Tomorrow will be .
, % of the Moon is Illuminated

Today's Extremes

State Highs State Lows

Community

WunderPhotos

Upload Photos

1,928,012 photos uploaded!

WunderBlog® & News

Nearby

Air Quality

  Air Quality AQ Index Pollutant
Not available.

Snow Depth

Station Depth Elevation

Earthquake Activity

City Distance Mag. Time & Date
Minimum magnitude displayed is 2.5.

Coastal Water Temperatures

Place Temperature

Stations

Nearby Weather Stations

Station Location Temp. Windchill Dew Point Humidity Wind Precip. Elev Updated Type
                   

Watches & Warnings

There are currently no watches in effect.